Time;durP1;ratioP1;P1;durP2;ratioP2;P2;SDS_P1;SDS_P2;PMS_P1;PMS_P2;Temp;Humidity;BMP_temperature;BMP_pressure;BME280_temperature;BME280_humidity;BME280_pressure;Samples;Min_cycle;Max_cycle;Signal;HPM_P1;HPM_P2
2022/07/05 00:00:49;;;;;;;41.28;12.20;;;;;;;21.50;52.53;99613.44;4907608;29;20594;-71
2022/07/05 00:03:15;;;;;;;23.50;10.73;;;;;;;21.44;52.21;99606.53;4922448;29;20071;-72
2022/07/05 00:05:41;;;;;;;31.00;11.18;;;;;;;21.44;51.98;99612.09;4909148;29;20580;-71
2022/07/05 00:08:07;;;;;;;28.70;11.27;;;;;;;21.44;52.50;99612.09;4908767;29;20292;-71
2022/07/05 00:10:36;;;;;;;20.97;10.67;;;;;;;21.41;52.82;99610.03;4910763;29;20063;-71
2022/07/05 00:13:03;;;;;;;24.77;10.00;;;;;;;21.38;52.07;99620.66;4911733;29;20055;-71
2022/07/05 00:15:30;;;;;;;19.67;9.35;;;;;;;21.41;52.00;99630.28;4910699;29;20516;-71
2022/07/05 00:17:56;;;;;;;22.67;9.47;;;;;;;21.41;51.49;99621.16;4908083;29;20052;-71
2022/07/05 00:20:22;;;;;;;16.27;8.85;;;;;;;21.40;51.45;99625.88;4905527;29;20304;-72
2022/07/05 00:22:48;;;;;;;24.07;8.83;;;;;;;21.42;51.19;99620.00;4906401;29;20100;-72
2022/07/05 00:25:14;;;;;;;22.00;9.10;;;;;;;21.45;51.14;99625.63;4908377;29;20060;-72
2022/07/05 00:27:42;;;;;;;18.88;9.35;;;;;;;21.43;51.40;99627.16;4908793;29;20060;-70
2022/07/05 00:30:10;;;;;;;39.85;11.52;;;;;;;21.42;52.11;99626.34;4906818;29;20061;-70
2022/07/05 00:32:36;;;;;;;51.50;13.32;;;;;;;21.38;52.87;99622.66;4904773;29;20058;-69
2022/07/05 00:35:03;;;;;;;32.85;11.05;;;;;;;21.33;52.62;99626.50;4906097;29;20528;-69
2022/07/05 00:37:31;;;;;;;47.78;12.98;;;;;;;21.30;52.93;99621.63;4890494;29;20051;-68
2022/07/05 00:40:01;;;;;;;43.03;12.18;;;;;;;21.17;53.17;99604.19;4906994;29;20134;-70
2022/07/05 00:42:27;;;;;;;27.20;9.82;;;;;;;21.19;53.57;99629.66;4907775;29;20523;-69
2022/07/05 00:44:54;;;;;;;28.88;10.05;;;;;;;21.17;53.47;99629.22;4907116;29;20131;-68
2022/07/05 00:47:21;;;;;;;24.48;10.00;;;;;;;21.15;53.18;99630.72;4907516;29;20052;-70
2022/07/05 00:49:47;;;;;;;25.73;9.55;;;;;;;21.14;53.34;99623.53;4905739;29;20092;-70
2022/07/05 00:52:13;;;;;;;24.83;9.80;;;;;;;21.12;53.04;99629.44;4905754;29;20480;-69
2022/07/05 00:54:40;;;;;;;21.95;9.57;;;;;;;21.09;52.81;99624.59;4909762;29;20056;-70
2022/07/05 00:57:06;;;;;;;23.83;8.95;;;;;;;21.09;52.48;99628.19;4907077;29;20044;-71
2022/07/05 00:59:33;;;;;;;19.50;9.38;;;;;;;21.09;52.40;99633.75;4885220;29;20044;-69
2022/07/05 01:02:01;;;;;;;19.55;9.13;;;;;;;21.07;52.45;99633.28;4902022;29;20069;-70
2022/07/05 01:04:27;;;;;;;17.48;8.93;;;;;;;21.07;52.73;99633.28;4879343;29;20080;-70
2022/07/05 01:06:53;;;;;;;25.25;9.98;;;;;;;21.01;53.29;99618.00;4885914;29;20128;-70
2022/07/05 01:09:22;;;;;;;25.13;10.57;;;;;;;21.04;53.49;99624.84;4888523;29;20148;-70
2022/07/05 01:11:50;;;;;;;23.70;9.40;;;;;;;21.01;53.93;99623.56;4906665;29;20071;-68
2022/07/05 01:14:19;;;;;;;20.48;9.68;;;;;;;20.94;54.05;99629.69;4907890;29;20048;-69
2022/07/05 01:16:45;;;;;;;21.35;9.70;;;;;;;20.91;53.87;99624.84;4922951;29;20067;-70
2022/07/05 01:19:13;;;;;;;19.60;10.05;;;;;;;20.92;54.49;99632.03;4918565;29;20063;-69
2022/07/05 01:21:41;;;;;;;20.25;10.15;;;;;;;20.91;54.38;99624.84;4903948;29;20480;-69
2022/07/05 01:24:10;;;;;;;23.67;10.18;;;;;;;20.86;54.46;99627.88;4908832;29;20516;-68
2022/07/05 01:26:37;;;;;;;23.23;10.50;;;;;;;20.86;54.96;99630.66;4910174;29;20075;-69
2022/07/05 01:29:03;;;;;;;25.10;10.50;;;;;;;20.80;55.10;99634.78;4906864;29;20135;-69
2022/07/05 01:31:29;;;;;;;26.55;9.63;;;;;;;20.77;55.13;99635.47;4907948;29;20044;-69
2022/07/05 01:33:55;;;;;;;22.27;10.70;;;;;;;20.73;54.98;99638.13;4905049;29;20519;-69
2022/07/05 01:36:22;;;;;;;25.38;9.68;;;;;;;20.73;54.88;99638.13;4905461;29;20056;-70
2022/07/05 01:38:49;;;;;;;21.30;9.90;;;;;;;20.72;55.13;99630.94;4907562;29;20051;-69
2022/07/05 01:41:16;;;;;;;;;;;;;;;20.71;55.25;99636.88;4922854;29;20044;-69
2022/07/05 01:43:43;;;;;;;21.60;11.18;;;;;;;20.68;55.85;99636.41;4907516;29;20028;-70
2022/07/05 01:46:10;;;;;;;30.27;11.80;;;;;;;20.66;56.11;99637.91;4908323;29;20635;-68
2022/07/05 01:48:38;;;;;;;22.08;11.18;;;;;;;20.65;56.05;99636.28;4908598;29;20192;-70
2022/07/05 01:51:09;;;;;;;30.40;11.38;;;;;;;20.63;56.43;99631.06;4906702;29;20060;-70
2022/07/05 01:53:39;;;;;;;21.27;10.52;;;;;;;20.61;56.19;99635.38;4905973;29;20049;-71
2022/07/05 01:56:05;;;;;;;38.78;11.63;;;;;;;20.64;56.57;99634.69;4904681;29;20405;-72
2022/07/05 01:58:33;;;;;;;27.77;10.98;;;;;;;20.65;56.27;99628.75;4921453;29;20435;-71
2022/07/05 02:00:59;;;;;;;28.05;11.15;;;;;;;20.67;56.34;99622.88;4909325;29;20097;-71
2022/07/05 02:03:26;;;;;;;35.00;11.95;;;;;;;20.72;56.80;99621.81;4905318;29;20048;-71
2022/07/05 02:05:53;;;;;;;26.60;12.10;;;;;;;20.74;56.74;99622.28;4904273;29;20079;-71
2022/07/05 02:08:21;;;;;;;27.67;12.77;;;;;;;20.75;56.84;99621.13;4906574;29;20100;-72
2022/07/05 02:10:47;;;;;;;28.42;12.55;;;;;;;20.74;56.91;99630.63;4904676;29;20063;-72
2022/07/05 02:13:14;;;;;;;35.03;13.52;;;;;;;20.75;56.91;99623.91;4907757;29;20056;-71
2022/07/05 02:15:43;;;;;;;25.80;12.30;;;;;;;20.74;56.91;99623.09;4906203;29;20059;-72
2022/07/05 02:18:10;;;;;;;28.50;12.57;;;;;;;20.74;57.25;99636.19;4907292;29;20052;-73
2022/07/05 02:20:40;;;;;;;26.15;13.60;;;;;;;20.75;57.25;99627.47;4909229;29;20056;-71
2022/07/05 02:23:07;;;;;;;26.77;13.25;;;;;;;20.76;57.33;99631.06;4893236;29;20056;-71
2022/07/05 02:25:34;;;;;;;34.85;13.70;;;;;;;20.78;57.11;99632.34;4909875;29;20059;-72
2022/07/05 02:28:05;;;;;;;27.25;13.48;;;;;;;20.81;57.13;99626.13;4892621;29;20052;-71
2022/07/05 02:30:32;;;;;;;33.65;13.77;;;;;;;20.85;56.87;99639.31;4908310;29;20055;-72
2022/07/05 02:33:00;;;;;;;31.67;14.75;;;;;;;20.89;57.10;99634.69;4908506;29;20054;-71
2022/07/05 02:35:27;;;;;;;33.42;14.50;;;;;;;20.93;56.85;99641.19;4908662;29;20522;-70
2022/07/05 02:37:54;;;;;;;;;;;;;;;20.91;57.02;99640.69;4910791;29;20464;-72
2022/07/05 02:40:20;;;;;;;32.30;13.80;;;;;;;20.97;56.61;99639.31;4907588;29;20037;-72
2022/07/05 02:42:50;;;;;;;32.33;14.13;;;;;;;21.03;56.36;99640.69;4893041;29;20586;-70
2022/07/05 02:45:17;;;;;;;28.13;13.18;;;;;;;21.09;56.48;99638.47;4911396;29;20076;-71
2022/07/05 02:47:46;;;;;;;30.90;13.23;;;;;;;21.15;56.24;99636.28;4925133;29;20079;-73
2022/07/05 02:50:15;;;;;;;;;;;;;;;21.20;56.27;99639.63;4908950;29;20067;-72
2022/07/05 02:52:45;;;;;;;34.28;13.68;;;;;;;21.26;56.15;99637.41;4908900;29;20026;-73
2022/07/05 02:55:13;;;;;;;29.95;12.95;;;;;;;21.32;55.75;99636.00;4923254;29;20516;-72
2022/07/05 02:57:39;;;;;;;29.58;11.85;;;;;;;21.37;55.61;99643.28;4909676;29;20069;-72
2022/07/05 03:00:09;;;;;;;31.73;13.43;;;;;;;21.41;55.65;99640.63;4923827;29;20071;-72
2022/07/05 03:02:42;;;;;;;32.47;13.07;;;;;;;21.44;56.02;99639.91;4892809;29;20155;-72
2022/07/05 03:05:10;;;;;;;28.92;13.23;;;;;;;21.44;55.66;99639.91;4922280;29;20048;-72
2022/07/05 03:07:39;;;;;;;30.42;13.15;;;;;;;21.54;55.91;99644.94;4907387;29;20040;-73
2022/07/05 03:10:06;;;;;;;27.77;13.30;;;;;;;21.61;55.65;99644.34;4892385;29;20432;-71
2022/07/05 03:12:33;;;;;;;32.03;13.52;;;;;;;21.69;55.69;99643.44;4908493;29;20075;-73
2022/07/05 03:14:59;;;;;;;33.40;13.40;;;;;;;21.76;55.16;99648.38;4924253;29;20472;-72
2022/07/05 03:17:26;;;;;;;26.95;12.80;;;;;;;21.81;55.26;99651.72;4907493;29;20106;-72
2022/07/05 03:19:52;;;;;;;29.98;12.68;;;;;;;21.89;54.76;99649.97;4907682;29;20530;-71
2022/07/05 03:22:21;;;;;;;41.30;13.68;;;;;;;21.90;54.35;99651.56;4909149;29;20171;-72
2022/07/05 03:24:49;;;;;;;;;;;;;;;21.93;54.35;99648.06;4908306;29;20453;-72
2022/07/05 03:27:16;;;;;;;27.77;11.70;;;;;;;22.02;53.20;99652.69;4923255;29;19933;-71
2022/07/05 03:29:43;;;;;;;33.42;12.45;;;;;;;22.09;53.42;99653.69;4906587;29;20139;-71
2022/07/05 03:32:10;;;;;;;22.70;11.20;;;;;;;22.21;53.11;99658.34;4892572;29;20051;-73
2022/07/05 03:34:38;;;;;;;23.70;10.38;;;;;;;22.27;52.12;99650.56;4909360;29;20048;-72
2022/07/05 03:37:06;;;;;;;23.02;10.25;;;;;;;22.35;51.18;99651.53;4908880;29;20048;-71
2022/07/05 03:39:32;;;;;;;20.25;9.77;;;;;;;22.42;50.93;99654.50;4909238;29;20547;-71
2022/07/05 03:42:00;;;;;;;20.80;9.10;;;;;;;22.51;49.72;99649.59;4907817;29;20044;-73
2022/07/05 03:44:31;;;;;;;21.13;9.60;;;;;;;22.59;50.01;99658.13;4909999;29;20044;-72
2022/07/05 03:46:59;;;;;;;18.83;9.60;;;;;;;22.66;49.38;99653.53;4893666;29;20051;-71
2022/07/05 03:49:25;;;;;;;19.60;9.80;;;;;;;22.72;49.07;99656.88;4907356;29;20139;-72
2022/07/05 03:51:51;;;;;;;20.52;10.25;;;;;;;22.80;48.91;99664.25;4906660;29;20048;-73
2022/07/05 03:54:17;;;;;;;31.15;10.55;;;;;;;22.81;48.78;99665.03;4907919;29;20056;-72
2022/07/05 03:56:44;;;;;;;24.13;9.63;;;;;;;22.78;48.95;99652.63;4908263;29;20520;-72
2022/07/05 03:59:13;;;;;;;29.23;9.43;;;;;;;22.90;48.45;99660.09;4891705;29;20044;-72
2022/07/05 04:01:39;;;;;;;22.83;9.38;;;;;;;23.01;48.78;99670.66;4908330;29;20131;-71
2022/07/05 04:04:06;;;;;;;21.90;9.50;;;;;;;23.09;48.20;99672.44;4906987;29;20052;-72
2022/07/05 04:06:32;;;;;;;18.05;9.80;;;;;;;23.05;47.87;99666.00;4907634;29;20056;-72
2022/07/05 04:09:00;;;;;;;21.20;9.68;;;;;;;23.07;47.99;99672.81;4907960;29;20052;-71
2022/07/05 04:11:27;;;;;;;22.33;9.88;;;;;;;23.11;47.97;99661.75;4923535;29;20459;-72
2022/07/05 04:13:54;;;;;;;19.70;10.05;;;;;;;23.18;47.75;99670.28;4905028;29;20442;-72
2022/07/05 04:16:26;;;;;;;34.67;10.90;;;;;;;23.25;48.14;99674.38;4922925;29;20052;-72
2022/07/05 04:18:52;;;;;;;23.38;9.88;;;;;;;23.33;48.00;99676.19;4891640;29;20537;-73
2022/07/05 04:21:19;;;;;;;21.33;9.70;;;;;;;23.34;47.51;99684.19;4922558;29;20052;-71
2022/07/05 04:23:46;;;;;;;30.20;9.90;;;;;;;23.32;47.32;99678.19;4904789;29;20058;-72
2022/07/05 04:26:12;;;;;;;21.13;10.30;;;;;;;23.41;47.29;99685.50;4907301;29;20076;-71
2022/07/05 04:28:43;;;;;;;19.48;10.65;;;;;;;23.43;47.21;99683.97;4907204;29;20052;-73
2022/07/05 04:31:13;;;;;;;24.58;9.98;;;;;;;23.47;47.23;99686.84;4907787;29;20048;-72
2022/07/05 04:33:46;;;;;;;27.20;11.23;;;;;;;23.49;47.23;99690.91;4905900;29;20081;-72
2022/07/05 04:36:17;;;;;;;20.67;9.43;;;;;;;23.55;46.95;99685.81;4906772;29;20536;-72
2022/07/05 04:38:44;;;;;;;24.35;8.30;;;;;;;23.56;46.21;99681.84;4907954;29;20056;-72
2022/07/05 04:41:10;;;;;;;19.38;9.65;;;;;;;23.64;46.14;99689.22;4906334;29;20076;-73
2022/07/05 04:43:38;;;;;;;21.95;8.38;;;;;;;23.68;45.61;99685.69;4906932;29;20048;-71
2022/07/05 04:46:07;;;;;;;21.02;8.48;;;;;;;23.73;45.03;99688.19;4908289;29;20063;-72
2022/07/05 04:48:34;;;;;;;19.58;7.53;;;;;;;23.78;44.56;99687.91;4891255;29;20087;-71
2022/07/05 04:51:02;;;;;;;14.38;7.50;;;;;;;23.88;44.27;99684.53;4905635;29;20052;-71
2022/07/05 04:53:30;;;;;;;19.25;8.30;;;;;;;23.99;44.12;99689.50;4906613;29;20472;-73
2022/07/05 04:55:56;;;;;;;18.70;7.65;;;;;;;24.05;43.89;99683.28;4907343;29;20055;-72
2022/07/05 04:58:22;;;;;;;19.20;8.25;;;;;;;24.16;43.95;99677.88;4907060;29;20147;-73
2022/07/05 05:00:48;;;;;;;21.17;8.05;;;;;;;24.29;43.84;99683.31;4907483;29;20051;-72
2022/07/05 05:03:14;;;;;;;21.88;7.78;;;;;;;24.40;43.85;99678.72;4905746;29;20071;-72
2022/07/05 05:05:40;;;;;;;17.80;8.10;;;;;;;24.47;43.40;99683.63;4906408;29;20079;-72
2022/07/05 05:08:08;;;;;;;19.05;7.00;;;;;;;24.52;43.43;99677.72;4907933;29;20390;-72
2022/07/05 05:10:34;;;;;;;22.77;8.02;;;;;;;24.59;43.40;99671.44;4906002;29;20163;-72
2022/07/05 05:13:00;;;;;;;18.70;7.82;;;;;;;24.63;43.35;99684.31;4906266;29;20273;-72
2022/07/05 05:15:26;;;;;;;18.58;7.78;;;;;;;24.70;43.18;99683.63;4906329;29;20060;-72
2022/07/05 05:17:52;;;;;;;18.65;7.32;;;;;;;24.74;42.46;99678.06;4906847;29;20468;-72
2022/07/05 05:20:19;;;;;;;17.10;7.43;;;;;;;24.80;42.45;99676.63;4905549;29;20074;-71
2022/07/05 05:22:45;;;;;;;18.92;7.57;;;;;;;24.87;41.78;99675.91;4905674;29;20088;-71
2022/07/05 05:25:14;;;;;;;15.90;7.05;;;;;;;24.92;41.10;99679.22;4909207;29;20050;-73
2022/07/05 05:27:47;;;;;;;17.92;7.05;;;;;;;24.92;41.17;99673.63;4907330;29;20058;-72
2022/07/05 05:30:17;;;;;;;14.75;7.30;;;;;;;25.04;40.97;99675.38;4906087;29;20056;-74
2022/07/05 05:32:43;;;;;;;25.98;7.78;;;;;;;25.04;40.95;99678.19;4906147;29;20139;-72
2022/07/05 05:35:10;;;;;;;18.10;8.10;;;;;;;25.09;41.22;99670.63;4909205;29;20139;-72
2022/07/05 05:37:47;;;;;;;22.35;7.07;;;;;;;25.15;41.04;99674.75;4908885;29;20316;-72
2022/07/05 05:40:25;;;;;;;14.48;7.39;;;;;;;25.20;41.17;99672.41;4889357;28;10001236;-72
2022/07/05 05:42:52;;;;;;;17.90;7.22;;;;;;;25.31;41.14;99668.97;4902896;29;20365;-72
2022/07/05 05:45:18;;;;;;;;;;;;;;;25.35;41.09;99667.81;4918997;29;20048;-72
2022/07/05 05:47:46;;;;;;;20.98;7.82;;;;;;;25.43;41.34;99673.50;4904500;29;19926;-73
2022/07/05 05:50:12;;;;;;;25.38;8.13;;;;;;;25.49;40.94;99667.22;4905075;29;20047;-71
2022/07/05 05:52:38;;;;;;;11.30;7.07;;;;;;;25.55;40.21;99670.50;4898669;29;20416;-74
2022/07/05 05:55:05;;;;;;;23.25;7.15;;;;;;;25.58;40.11;99660.56;4902421;29;20586;-73
2022/07/05 05:57:34;;;;;;;17.15;6.78;;;;;;;25.67;39.67;99654.66;4902367;29;20496;-74
2022/07/05 06:00:00;;;;;;;20.02;7.28;;;;;;;25.80;39.86;99664.41;4889284;29;20535;-70
2022/07/05 06:02:26;;;;;;;15.38;6.82;;;;;;;25.89;39.32;99655.72;4902142;29;20484;-70
2022/07/05 06:04:52;;;;;;;15.20;6.72;;;;;;;25.94;39.66;99660.97;4902899;29;20048;-71
2022/07/05 06:07:18;;;;;;;15.27;6.30;;;;;;;26.00;39.23;99664.22;4915543;29;20048;-73
2022/07/05 06:09:44;;;;;;;16.95;6.00;;;;;;;25.97;38.92;99671.38;4906830;29;20115;-73
2022/07/05 06:12:10;;;;;;;14.70;5.95;;;;;;;25.98;38.49;99663.81;4903512;29;20063;-73
2022/07/05 06:14:38;;;;;;;23.37;7.20;;;;;;;26.00;38.73;99659.44;4903477;29;20151;-72
2022/07/05 06:17:04;;;;;;;21.00;6.45;;;;;;;26.09;39.07;99663.91;4907303;29;20048;-73
2022/07/05 06:19:30;;;;;;;21.65;6.70;;;;;;;26.12;39.08;99657.53;4907022;29;20055;-72
2022/07/05 06:21:56;;;;;;;16.95;6.50;;;;;;;26.21;38.59;99654.44;4906241;29;20414;-73
2022/07/05 06:24:22;;;;;;;21.67;7.28;;;;;;;26.24;38.67;99660.09;4908398;29;20156;-73
2022/07/05 06:26:48;;;;;;;17.45;7.05;;;;;;;26.31;38.49;99659.34;4901653;29;20148;-72
2022/07/05 06:29:14;;;;;;;14.00;6.32;;;;;;;26.48;38.48;99661.50;4902736;29;20063;-75
2022/07/05 06:31:42;;;;;;;15.10;6.40;;;;;;;26.68;38.48;99660.47;4903351;29;20242;-70
2022/07/05 06:34:08;;;;;;;21.58;7.45;;;;;;;26.81;38.29;99653.38;4903838;29;20252;-71
2022/07/05 06:36:34;;;;;;;18.65;6.60;;;;;;;27.00;37.99;99651.50;4898514;29;20040;-71
2022/07/05 06:39:00;;;;;;;18.35;7.32;;;;;;;27.25;37.42;99651.66;4895069;29;20048;-70
2022/07/05 06:41:26;;;;;;;15.57;6.90;;;;;;;27.44;37.36;99661.78;4902375;29;20519;-71
2022/07/05 06:43:52;;;;;;;21.07;7.53;;;;;;;27.60;36.85;99643.84;4905525;29;20428;-71
2022/07/05 06:46:24;;;;;;;20.23;7.18;;;;;;;27.71;36.68;99649.47;4905665;29;20135;-68
2022/07/05 06:48:51;;;;;;;14.85;7.13;;;;;;;27.83;36.57;99654.75;4903933;29;20079;-71
2022/07/05 06:51:17;;;;;;;23.67;6.72;;;;;;;27.87;36.38;99641.50;4908561;29;20147;-70
2022/07/05 06:53:43;;;;;;;16.63;6.80;;;;;;;28.00;35.95;99646.75;4907666;29;20119;-70
2022/07/05 06:56:09;;;;;;;17.05;7.00;;;;;;;28.16;35.52;99644.41;4907794;29;20048;-71
2022/07/05 06:58:35;;;;;;;12.93;6.88;;;;;;;28.38;34.92;99643.63;4923388;29;20062;-70
2022/07/05 07:01:01;;;;;;;16.58;6.65;;;;;;;28.39;34.12;99640.38;4909384;29;20076;-70
2022/07/05 07:03:27;;;;;;;18.70;6.97;;;;;;;28.47;34.01;99643.22;4911560;29;20052;-70
2022/07/05 07:05:55;;;;;;;18.77;7.67;;;;;;;28.47;34.60;99657.28;4909775;29;20516;-70
2022/07/05 07:11:06;;;;;;;14.77;6.68;;;;;;;28.55;34.07;99637.19;4892507;29;20522;-69
2022/07/05 07:13:32;;;;;;;12.10;6.97;;;;;;;28.56;34.10;99640.78;4893510;29;20048;-72
2022/07/05 07:15:58;;;;;;;18.40;7.93;;;;;;;28.69;33.23;99641.19;4910433;29;20060;-71
2022/07/05 07:18:24;;;;;;;17.00;6.50;;;;;;;28.78;33.29;99643.59;4901102;29;20055;-69
2022/07/05 07:20:50;;;;;;;15.10;8.00;;;;;;;28.92;33.41;99634.34;4908295;29;20056;-71
2022/07/05 07:23:19;;;;;;;14.27;7.32;;;;;;;28.99;33.35;99632.34;4908385;29;20040;-71
2022/07/05 07:25:45;;;;;;;12.27;6.97;;;;;;;29.02;33.51;99637.16;4908781;29;20139;-69
2022/07/05 07:28:11;;;;;;;16.65;7.63;;;;;;;29.17;33.68;99644.75;4912290;29;20052;-71
2022/07/05 07:30:37;;;;;;;17.55;7.20;;;;;;;29.42;32.95;99634.22;4912006;29;20056;-70
2022/07/05 07:33:03;;;;;;;18.20;8.25;;;;;;;29.60;33.00;99635.38;4907183;29;20055;-68
2022/07/05 07:35:30;;;;;;;21.73;7.20;;;;;;;29.78;32.54;99626.84;4874637;29;20100;-69
2022/07/05 07:37:56;;;;;;;19.13;7.33;;;;;;;30.08;32.68;99631.13;4907448;29;20335;-70
2022/07/05 07:40:23;;;;;;;21.25;7.55;;;;;;;30.35;32.42;99630.50;4924849;29;20060;-70
2022/07/05 07:42:49;;;;;;;25.08;8.05;;;;;;;30.51;32.08;99635.59;4910230;29;20058;-70
2022/07/05 07:45:15;;;;;;;23.37;7.83;;;;;;;30.58;31.73;99632.72;4909413;29;20500;-70
2022/07/05 07:47:42;;;;;;;14.10;7.72;;;;;;;30.56;31.22;99630.31;4925705;29;20112;-71
2022/07/05 07:50:09;;;;;;;20.63;7.15;;;;;;;30.76;31.23;99624.13;4910454;29;20055;-69
2022/07/05 07:52:36;;;;;;;16.38;7.40;;;;;;;31.01;30.02;99628.72;4909593;29;20516;-70
2022/07/05 07:55:03;;;;;;;13.30;7.10;;;;;;;31.26;29.69;99636.94;4909897;29;20056;-70
2022/07/05 07:57:31;;;;;;;17.33;7.80;;;;;;;31.50;30.28;99633.41;4908381;29;20107;-71
2022/07/05 07:59:57;;;;;;;15.43;7.78;;;;;;;31.80;29.26;99635.44;4909503;29;20052;-71
2022/07/05 08:02:24;;;;;;;16.50;7.63;;;;;;;31.86;30.26;99635.00;4908286;29;20095;-70
2022/07/05 08:04:50;;;;;;;14.32;7.75;;;;;;;31.80;29.81;99631.84;4890761;29;20143;-70
2022/07/05 08:07:17;;;;;;;22.50;7.38;;;;;;;31.78;30.40;99626.59;4907833;29;20048;-70
2022/07/05 08:09:46;;;;;;;21.50;8.15;;;;;;;32.00;29.97;99629.09;4905309;29;20070;-68
2022/07/05 08:12:12;;;;;;;25.83;8.45;;;;;;;32.30;29.46;99633.09;4907330;29;20594;-70
2022/07/05 08:14:40;;;;;;;13.65;7.72;;;;;;;32.57;29.02;99637.94;4923956;29;20086;-71
2022/07/05 08:17:08;;;;;;;20.83;8.10;;;;;;;32.47;28.24;99636.06;4905396;29;20063;-70
2022/07/05 08:22:19;;;;;;;17.75;7.97;;;;;;;32.42;28.86;99623.25;4907466;29;20048;-71
2022/07/05 08:24:46;;;;;;;25.13;7.75;;;;;;;32.78;28.01;99633.13;4906361;29;20044;-70
2022/07/05 08:27:12;;;;;;;23.58;7.47;;;;;;;32.03;28.58;99631.09;4905138;29;20175;-73
2022/07/05 08:29:40;;;;;;;17.52;7.95;;;;;;;31.43;29.58;99633.50;4905684;29;20056;-73
2022/07/05 08:32:06;;;;;;;16.73;8.00;;;;;;;31.52;29.80;99628.94;4900776;29;20127;-74
2022/07/05 08:34:33;;;;;;;22.80;8.63;;;;;;;32.24;28.78;99615.03;4905790;29;20044;-73
2022/07/05 08:36:59;;;;;;;16.48;7.53;;;;;;;32.87;27.25;99624.09;4905906;29;20078;-73
2022/07/05 08:39:26;;;;;;;18.05;8.75;;;;;;;33.22;27.19;99618.97;4910832;29;20139;-72
2022/07/05 08:41:52;;;;;;;;;;;;;;;33.56;26.66;99614.25;4908225;29;20177;-71
2022/07/05 08:44:20;;;;;;;20.83;8.20;;;;;;;33.62;26.66;99621.00;4914882;29;20021;-73
2022/07/05 08:46:50;;;;;;;16.75;8.30;;;;;;;33.68;25.86;99618.44;4899815;29;20520;-73
2022/07/05 08:49:21;;;;;;;16.33;8.20;;;;;;;33.87;25.96;99611.13;4903984;29;20062;-72
2022/07/05 08:51:49;;;;;;;20.63;8.00;;;;;;;33.38;27.00;99610.53;4900790;29;20555;-72
2022/07/05 08:54:16;;;;;;;17.70;8.35;;;;;;;32.29;28.50;99608.09;4902248;29;20044;-73
2022/07/05 08:56:43;;;;;;;20.27;8.88;;;;;;;31.55;30.07;99619.63;4891656;29;20222;-71
2022/07/05 08:59:09;;;;;;;17.08;8.68;;;;;;;31.04;31.03;99612.94;4906194;29;20056;-71
2022/07/05 09:01:37;;;;;;;18.73;8.45;;;;;;;30.87;31.25;99609.91;4908026;29;20630;-71
2022/07/05 09:04:07;;;;;;;19.13;8.90;;;;;;;30.91;31.01;99601.41;4923035;29;20059;-71
2022/07/05 09:06:37;;;;;;;20.98;8.45;;;;;;;31.06;31.16;99600.03;4903476;29;20067;-72
2022/07/05 09:09:03;;;;;;;18.73;8.73;;;;;;;31.15;30.14;99602.34;4904718;29;20136;-70
2022/07/05 09:11:35;;;;;;;20.50;8.65;;;;;;;31.49;28.96;99603.56;4905098;29;20155;-71
2022/07/05 09:14:03;;;;;;;16.65;8.63;;;;;;;32.41;28.18;99596.19;4920449;29;20050;-73
2022/07/05 09:16:30;;;;;;;22.15;8.38;;;;;;;33.55;26.91;99587.16;4905965;29;20072;-74
2022/07/05 09:18:56;;;;;;;;;;;;;;;34.58;24.75;99587.97;4903167;29;20100;-73
2022/07/05 09:21:26;;;;;;;16.15;8.75;;;;;;;35.12;24.15;99579.22;4905253;29;19956;-71
2022/07/05 09:23:56;;;;;;;19.48;8.90;;;;;;;35.21;24.00;99585.06;4909622;29;20175;-71
2022/07/05 09:26:31;;;;;;;20.33;8.82;;;;;;;34.08;25.25;99585.13;4904416;29;20070;-72
2022/07/05 09:28:57;;;;;;;26.88;8.45;;;;;;;32.98;26.94;99587.88;4902238;29;20047;-70
2022/07/05 09:31:28;;;;;;;23.05;9.00;;;;;;;32.39;28.41;99588.13;4900765;29;20075;-70
2022/07/05 09:33:54;;;;;;;13.45;8.27;;;;;;;32.65;27.16;99599.81;4907654;29;20459;-70
2022/07/05 09:36:20;;;;;;;19.27;9.18;;;;;;;33.19;26.20;99595.16;4904858;29;20516;-70
2022/07/05 09:38:51;;;;;;;17.02;8.82;;;;;;;34.21;25.22;99584.44;4906866;29;20052;-71
2022/07/05 09:41:17;;;;;;;18.88;8.80;;;;;;;34.94;24.34;99572.00;4900333;29;20072;-69
2022/07/05 09:43:44;;;;;;;17.25;8.60;;;;;;;34.72;24.37;99557.59;4906806;29;20078;-70
2022/07/05 09:46:10;;;;;;;19.02;7.75;;;;;;;34.02;25.25;99575.53;4902533;29;20516;-70
2022/07/05 09:48:36;;;;;;;21.00;9.45;;;;;;;34.20;25.23;99571.50;4919098;29;20071;-70
2022/07/05 09:51:06;;;;;;;18.42;8.63;;;;;;;34.15;25.45;99572.00;4906701;29;20071;-70
2022/07/05 09:53:45;;;;;;;19.75;8.57;;;;;;;33.44;26.27;99576.88;4908900;29;20052;-71
2022/07/05 09:56:13;;;;;;;19.00;8.75;;;;;;;32.95;26.95;99569.75;4908515;29;20071;-69
2022/07/05 09:58:40;;;;;;;20.85;8.98;;;;;;;33.92;25.94;99576.59;4923139;29;20058;-72
2022/07/05 10:01:23;;;;;;;19.67;8.43;;;;;;;34.74;25.11;99560.78;4923189;29;20059;-71
2022/07/05 10:03:53;;;;;;;17.27;8.88;;;;;;;34.83;24.81;99562.97;4904559;29;20546;-69
2022/07/05 10:06:19;;;;;;;19.67;9.40;;;;;;;35.58;23.59;99557.16;4903193;29;20047;-70
2022/07/05 10:08:48;;;;;;;27.95;8.98;;;;;;;36.21;23.46;99553.16;4906075;29;20056;-71
2022/07/05 10:11:16;;;;;;;17.52;8.57;;;;;;;36.04;23.28;99548.38;4904471;29;20553;-73
2022/07/05 10:13:44;;;;;;;18.20;8.52;;;;;;;34.85;24.74;99538.56;4920769;29;20051;-73
2022/07/05 10:16:11;;;;;;;18.45;8.75;;;;;;;33.56;26.40;99554.75;4906892;29;20043;-74
2022/07/05 10:18:38;;;;;;;16.58;8.80;;;;;;;32.82;26.88;99548.97;4892086;29;20304;-72
2022/07/05 10:21:07;;;;;;;14.70;9.20;;;;;;;32.81;27.12;99556.66;4905438;29;20052;-72
2022/07/05 10:23:33;;;;;;;18.85;9.02;;;;;;;33.58;26.24;99544.56;4904785;29;20135;-72
2022/07/05 10:26:00;;;;;;;17.90;8.45;;;;;;;34.29;25.42;99542.50;4904937;29;20476;-73
2022/07/05 10:28:29;;;;;;;13.20;8.82;;;;;;;35.66;23.62;99534.19;4906275;29;20531;-73
2022/07/05 10:30:56;;;;;;;15.23;7.97;;;;;;;35.95;22.26;99531.22;4921288;29;20091;-73
2022/07/05 10:33:26;;;;;;;18.38;8.45;;;;;;;35.38;23.42;99531.78;4921627;29;20055;-74
2022/07/05 10:35:53;;;;;;;14.45;9.20;;;;;;;35.56;23.19;99530.44;4907475;29;20052;-73
2022/07/05 10:38:19;;;;;;;;;;;;;;;36.71;21.99;99531.47;4907735;29;20052;-74
2022/07/05 10:40:47;;;;;;;;;;;;;;;37.33;21.16;99529.22;4908667;29;19926;-72
2022/07/05 10:43:15;;;;;;;16.40;8.85;;;;;;;36.48;21.75;99530.66;4908150;29;20527;-74
2022/07/05 10:45:48;;;;;;;17.42;9.30;;;;;;;36.55;21.45;99511.75;4910489;29;20591;-73
2022/07/05 10:48:15;;;;;;;14.02;8.10;;;;;;;36.62;21.66;99517.19;4906542;29;21287;-72
2022/07/05 10:50:47;;;;;;;13.35;8.75;;;;;;;35.71;22.49;99531.56;4911068;29;20439;-74
2022/07/05 10:53:14;;;;;;;23.77;9.60;;;;;;;35.57;22.99;99549.09;4892963;29;20063;-72
2022/07/05 10:55:46;;;;;;;;;;;;;;;35.48;23.53;99549.72;4903701;29;20155;-70
2022/07/05 10:58:34;;;;;;;28.52;9.65;;;;;;;34.04;26.49;99558.91;4904918;29;20033;-70
2022/07/05 11:01:33;;;;;;;24.27;9.15;;;;;;;32.75;29.05;99552.72;4922921;29;20091;-71
2022/07/05 11:04:34;;;;;;;19.73;8.82;;;;;;;31.40;31.87;99556.09;4911349;29;20466;-70
2022/07/05 11:07:00;;;;;;;29.92;10.02;;;;;;;30.52;34.08;99544.16;4911943;29;20127;-70
2022/07/05 11:09:26;;;;;;;;;;;;;;;29.79;36.02;99543.94;4911900;29;20056;-71
2022/07/05 11:12:07;;;;;;;27.42;11.38;;;;;;;29.01;38.03;99542.69;4909707;29;19926;-70
2022/07/05 11:14:36;;;;;;;26.08;10.27;;;;;;;28.52;39.65;99539.59;4908880;29;20432;-71
2022/07/05 11:17:25;;;;;;;23.50;10.70;;;;;;;28.10;40.93;99549.63;4907472;29;20048;-70
2022/07/05 11:20:19;;;;;;;22.75;11.07;;;;;;;27.85;42.14;99548.41;4907771;29;20047;-70
2022/07/05 11:23:10;;;;;;;20.38;10.30;;;;;;;27.61;42.90;99558.41;4910428;29;20052;-71
2022/07/05 11:25:40;;;;;;;19.25;9.40;;;;;;;27.32;42.90;99561.91;4873424;29;20146;-70
2022/07/05 11:28:17;;;;;;;31.02;9.85;;;;;;;26.95;46.61;99576.16;4912115;29;20047;-70
2022/07/05 11:30:50;;;;;;;36.58;11.20;;;;;;;25.75;55.38;99601.16;4905224;29;20103;-70
2022/07/05 11:33:38;;;;;;;41.03;14.00;;;;;;;23.27;69.26;99611.53;4906916;29;20056;-70
2022/07/05 11:36:07;;;;;;;35.20;14.65;;;;;;;21.69;79.97;99593.34;4906725;29;20083;-70